Time;durP1;ratioP1;P1;durP2;ratioP2;P2;SDS_P1;SDS_P2;PMS_P1;PMS_P2;Temp;Humidity;BMP_temperature;BMP_pressure;BME280_temperature;BME280_humidity;BME280_pressure;Samples;Min_cycle;Max_cycle;Signal;HPM_P1;HPM_P2
2022/10/07 00:01:58;;;;;;;1.63;1.50;;;;;;;;;;5092315;28;20498;-74
2022/10/07 00:04:25;;;;;;;2.67;1.83;;;;;;;;;;5092801;28;20996;-73
2022/10/07 00:06:52;;;;;;;4.03;1.50;;;;;;;;;;5092329;28;20452;-71
2022/10/07 00:09:21;;;;;;;2.67;1.60;;;;;;;;;;5092742;28;20920;-73
2022/10/07 00:11:48;;;;;;;2.50;1.57;;;;;;;;;;5092478;28;20496;-73
2022/10/07 00:14:15;;;;;;;2.17;1.57;;;;;;;;;;5091952;28;20471;-73
2022/10/07 00:16:42;;;;;;;1.80;1.67;;;;;;;;;;5092365;28;20458;-73
2022/10/07 00:19:12;;;;;;;1.70;1.33;;;;;;;;;;5092052;28;20449;-73
2022/10/07 00:21:40;;;;;;;2.70;1.90;;;;;;;;;;5092490;28;20471;-73
2022/10/07 00:24:08;;;;;;;2.73;1.70;;;;;;;;;;5092030;28;20447;-73
2022/10/07 00:26:37;;;;;;;2.50;1.67;;;;;;;;;;5091797;28;20445;-73
2022/10/07 00:29:04;;;;;;;2.90;1.90;;;;;;;;;;5091933;28;20453;-73
2022/10/07 00:31:32;;;;;;;2.00;1.60;;;;;;;;;;5092367;28;20481;-73
2022/10/07 00:34:00;;;;;;;2.40;1.33;;;;;;;;;;5091928;28;20476;-75
2022/10/07 00:36:28;;;;;;;4.20;1.67;;;;;;;;;;5091778;28;20448;-73
2022/10/07 00:38:56;;;;;;;1.50;1.20;;;;;;;;;;5091771;28;20453;-72
2022/10/07 00:41:26;;;;;;;6.10;2.00;;;;;;;;;;5092637;28;20795;-72
2022/10/07 00:43:54;;;;;;;2.50;1.33;;;;;;;;;;5091839;28;20444;-71
2022/10/07 00:46:28;;;;;;;2.63;1.30;;;;;;;;;;5091639;28;20445;-73
2022/10/07 00:48:56;;;;;;;2.00;1.67;;;;;;;;;;5091785;28;20444;-72
2022/10/07 00:51:24;;;;;;;1.70;1.40;;;;;;;;;;5092083;28;20492;-72
2022/10/07 00:53:52;;;;;;;1.33;1.10;;;;;;;;;;5092413;28;20495;-73
2022/10/07 00:56:20;;;;;;;2.80;1.53;;;;;;;;;;5091725;28;20450;-73
2022/10/07 00:58:48;;;;;;;4.23;1.50;;;;;;;;;;5092217;28;20531;-72
2022/10/07 01:01:17;;;;;;;4.23;2.13;;;;;;;;;;5091313;28;20452;-72
2022/10/07 01:03:44;;;;;;;1.93;1.10;;;;;;;;;;5091926;28;20453;-73
2022/10/07 01:06:11;;;;;;;3.30;1.50;;;;;;;;;;5090889;28;20449;-72
2022/10/07 01:08:39;;;;;;;1.60;1.10;;;;;;;;;;5092283;28;20460;-72
2022/10/07 01:11:13;;;;;;;3.90;1.30;;;;;;;;;;5090829;28;20528;-72
2022/10/07 01:13:42;;;;;;;1.63;1.33;;;;;;;;;;5091668;28;20436;-73
2022/10/07 01:16:13;;;;;;;1.60;1.10;;;;;;;;;;5090506;28;20460;-72
2022/10/07 01:18:46;;;;;;;2.50;1.80;;;;;;;;;;5091582;28;20441;-72
2022/10/07 01:21:22;;;;;;;1.40;1.10;;;;;;;;;;5089559;28;20469;-72
2022/10/07 01:24:02;;;;;;;1.90;1.20;;;;;;;;;;5087549;28;20804;-71
2022/10/07 01:26:47;;;;;;;2.03;1.37;;;;;;;;;;5091351;28;20463;-71
2022/10/07 01:29:18;;;;;;;3.30;1.30;;;;;;;;;;5090980;28;20463;-71
2022/10/07 01:31:48;;;;;;;2.37;1.60;;;;;;;;;;5090919;28;20468;-71
2022/10/07 01:34:16;;;;;;;2.50;2.07;;;;;;;;;;5086043;28;20461;-71
2022/10/07 01:36:46;;;;;;;2.57;1.70;;;;;;;;;;5085692;28;20954;-71
2022/10/07 01:39:15;;;;;;;4.47;1.87;;;;;;;;;;5090683;28;20436;-72
2022/10/07 01:41:42;;;;;;;2.50;1.67;;;;;;;;;;5088291;28;20801;-72
2022/10/07 01:44:11;;;;;;;2.27;1.70;;;;;;;;;;5090014;28;20932;-72
2022/10/07 01:46:39;;;;;;;4.53;1.40;;;;;;;;;;5090313;28;20443;-72
2022/10/07 01:49:06;;;;;;;2.30;1.83;;;;;;;;;;5090802;28;20811;-72
2022/10/07 01:51:35;;;;;;;4.80;1.97;;;;;;;;;;5090837;28;20491;-72
2022/10/07 01:54:08;;;;;;;2.93;1.47;;;;;;;;;;5090469;28;20481;-71
2022/10/07 01:56:50;;;;;;;2.63;1.37;;;;;;;;;;5090856;28;20473;-72
2022/10/07 01:59:29;;;;;;;3.23;1.30;;;;;;;;;;5089201;28;20790;-71
2022/10/07 02:02:02;;;;;;;1.40;1.30;;;;;;;;;;5089940;28;20433;-72
2022/10/07 02:04:34;;;;;;;1.80;1.27;;;;;;;;;;5090798;28;20527;-71
2022/10/07 02:07:07;;;;;;;3.30;1.33;;;;;;;;;;5090119;28;20466;-71
2022/10/07 02:09:37;;;;;;;1.57;1.10;;;;;;;;;;5090725;28;20463;-71
2022/10/07 02:12:07;;;;;;;3.10;1.43;;;;;;;;;;5089974;28;20864;-72
2022/10/07 02:14:38;;;;;;;1.50;1.30;;;;;;;;;;5090633;28;20455;-72
2022/10/07 02:17:10;;;;;;;1.67;1.20;;;;;;;;;;5089820;28;20456;-72
2022/10/07 02:19:39;;;;;;;1.93;1.30;;;;;;;;;;5090858;28;20448;-72
2022/10/07 02:22:07;;;;;;;1.67;1.57;;;;;;;;;;5090227;28;20445;-72
2022/10/07 02:24:36;;;;;;;3.07;1.60;;;;;;;;;;5090530;28;20815;-72
2022/10/07 02:27:06;;;;;;;3.77;1.07;;;;;;;;;;5089536;28;20456;-72
2022/10/07 02:29:34;;;;;;;3.00;1.60;;;;;;;;;;5090922;28;20452;-72
2022/10/07 02:32:03;;;;;;;4.00;1.20;;;;;;;;;;5089905;28;20831;-72
2022/10/07 02:34:33;;;;;;;2.80;1.30;;;;;;;;;;5090476;28;20446;-72
2022/10/07 02:37:05;;;;;;;3.70;1.60;;;;;;;;;;5089517;28;20443;-72
2022/10/07 02:39:32;;;;;;;1.87;1.33;;;;;;;;;;5090935;28;20440;-72
2022/10/07 02:42:04;;;;;;;6.07;1.23;;;;;;;;;;5089668;28;20464;-72
2022/10/07 02:44:34;;;;;;;3.67;1.50;;;;;;;;;;5090310;28;20448;-72
2022/10/07 02:47:03;;;;;;;2.20;1.50;;;;;;;;;;5089239;28;20448;-72
2022/10/07 02:49:37;;;;;;;1.67;1.10;;;;;;;;;;5092087;28;20472;-72
2022/10/07 02:52:06;;;;;;;2.13;1.50;;;;;;;;;;5092714;28;20460;-72
2022/10/07 02:54:35;;;;;;;1.87;1.40;;;;;;;;;;5094103;28;20452;-72
2022/10/07 02:57:02;;;;;;;2.20;1.30;;;;;;;;;;5092905;28;20459;-72
2022/10/07 02:59:31;;;;;;;1.40;1.10;;;;;;;;;;5093825;28;20449;-72
2022/10/07 03:02:01;;;;;;;3.43;2.00;;;;;;;;;;5092984;28;20457;-71
2022/10/07 03:04:28;;;;;;;3.43;1.73;;;;;;;;;;5093849;28;20484;-72
2022/10/07 03:06:59;;;;;;;6.00;1.43;;;;;;;;;;5092944;28;20455;-72
2022/10/07 03:09:27;;;;;;;2.20;1.40;;;;;;;;;;5093875;28;20494;-72
2022/10/07 03:11:54;;;;;;;2.07;1.57;;;;;;;;;;5093324;28;20499;-72
2022/10/07 03:14:23;;;;;;;1.90;1.47;;;;;;;;;;5093185;28;20947;-71
2022/10/07 03:16:50;;;;;;;1.37;1.10;;;;;;;;;;5093509;28;20507;-71
2022/10/07 03:19:17;;;;;;;2.10;1.53;;;;;;;;;;5094018;28;20783;-71
2022/10/07 03:21:45;;;;;;;3.80;2.00;;;;;;;;;;5093322;28;20453;-72
2022/10/07 03:24:13;;;;;;;2.43;1.80;;;;;;;;;;5093018;28;20823;-71
2022/10/07 03:26:40;;;;;;;1.87;1.40;;;;;;;;;;5093065;28;20812;-71
2022/10/07 03:29:09;;;;;;;2.00;1.60;;;;;;;;;;5092946;28;20449;-71
2022/10/07 03:31:36;;;;;;;3.90;2.07;;;;;;;;;;5092595;28;20472;-71
2022/10/07 03:34:03;;;;;;;4.33;2.27;;;;;;;;;;5092986;28;20449;-72
2022/10/07 03:36:31;;;;;;;3.73;2.87;;;;;;;;;;5092867;28;21013;-71
2022/10/07 03:38:58;;;;;;;2.97;1.77;;;;;;;;;;5092419;28;20444;-71
2022/10/07 03:41:26;;;;;;;3.90;1.90;;;;;;;;;;5093041;28;20453;-71
2022/10/07 03:43:57;;;;;;;2.47;1.60;;;;;;;;;;5092366;28;20452;-71
2022/10/07 03:46:25;;;;;;;3.37;1.57;;;;;;;;;;5092729;28;20449;-71
2022/10/07 03:48:52;;;;;;;3.83;1.30;;;;;;;;;;5092270;28;20477;-71
2022/10/07 03:51:19;;;;;;;2.90;1.30;;;;;;;;;;5088578;28;20441;-73
2022/10/07 03:53:46;;;;;;;2.20;1.13;;;;;;;;;;5092832;28;20536;-71
2022/10/07 03:56:14;;;;;;;2.03;1.53;;;;;;;;;;5091983;28;20535;-70
2022/10/07 03:58:42;;;;;;;3.63;2.07;;;;;;;;;;5092594;28;20449;-73
2022/10/07 04:01:10;;;;;;;2.20;1.60;;;;;;;;;;5091162;28;20449;-73
2022/10/07 04:03:37;;;;;;;3.50;2.00;;;;;;;;;;5092363;28;20453;-72
2022/10/07 04:06:05;;;;;;;3.20;1.63;;;;;;;;;;5091435;28;20488;-72
2022/10/07 04:08:33;;;;;;;4.47;1.80;;;;;;;;;;5092455;28;20967;-72
2022/10/07 04:11:00;;;;;;;1.87;1.30;;;;;;;;;;5091980;28;20452;-71
2022/10/07 04:13:28;;;;;;;4.67;1.60;;;;;;;;;;5091992;28;20471;-73
2022/10/07 04:15:56;;;;;;;3.20;1.33;;;;;;;;;;5091585;28;20451;-73
2022/10/07 04:18:24;;;;;;;2.07;1.37;;;;;;;;;;5092637;28;20449;-73
2022/10/07 04:20:51;;;;;;;3.03;1.67;;;;;;;;;;5088472;28;20453;-73
2022/10/07 04:23:18;;;;;;;3.10;1.90;;;;;;;;;;5092438;28;20455;-72
2022/10/07 04:25:46;;;;;;;3.10;1.50;;;;;;;;;;5092198;28;20452;-73
2022/10/07 04:28:15;;;;;;;7.00;2.40;;;;;;;;;;5091936;28;20471;-73
2022/10/07 04:30:43;;;;;;;3.30;1.40;;;;;;;;;;5091837;28;20559;-73
2022/10/07 04:33:12;;;;;;;2.33;1.50;;;;;;;;;;5091404;28;20889;-72
2022/10/07 04:35:40;;;;;;;1.63;1.53;;;;;;;;;;5091769;28;20445;-72
2022/10/07 04:38:09;;;;;;;4.87;2.17;;;;;;;;;;5090653;28;20453;-72
2022/10/07 04:40:40;;;;;;;2.87;2.00;;;;;;;;;;5092044;28;20452;-73
2022/10/07 04:43:19;;;;;;;1.87;1.57;;;;;;;;;;5083777;28;20993;-72
2022/10/07 04:45:47;;;;;;;2.10;1.40;;;;;;;;;;5078804;28;20450;-72
2022/10/07 04:48:17;;;;;;;1.87;1.67;;;;;;;;;;5091090;28;20464;-72
2022/10/07 04:50:44;;;;;;;3.00;1.93;;;;;;;;;;5092128;28;20502;-72
2022/10/07 04:53:13;;;;;;;2.90;1.70;;;;;;;;;;5091265;28;20480;-72
2022/10/07 04:55:40;;;;;;;2.40;1.40;;;;;;;;;;5091598;28;20923;-72
2022/10/07 04:58:08;;;;;;;2.57;1.70;;;;;;;;;;5090490;28;20445;-72
2022/10/07 05:00:36;;;;;;;4.70;2.13;;;;;;;;;;5091644;28;20444;-72
2022/10/07 05:03:03;;;;;;;2.23;1.40;;;;;;;;;;5091015;28;20459;-72
2022/10/07 05:05:33;;;;;;;2.23;1.40;;;;;;;;;;5091250;28;20447;-72
2022/10/07 05:08:00;;;;;;;1.80;1.67;;;;;;;;;;5090916;28;20445;-72
2022/10/07 05:10:27;;;;;;;2.10;1.80;;;;;;;;;;5091618;28;20475;-72
2022/10/07 05:12:54;;;;;;;3.27;1.80;;;;;;;;;;5090118;28;20488;-72
2022/10/07 05:15:22;;;;;;;1.97;1.40;;;;;;;;;;5091763;28;20444;-72
2022/10/07 05:17:49;;;;;;;1.97;1.70;;;;;;;;;;5091250;28;20788;-72
2022/10/07 05:20:16;;;;;;;2.40;2.20;;;;;;;;;;5090378;28;20457;-72
2022/10/07 05:22:45;;;;;;;2.93;1.50;;;;;;;;;;5088535;28;20456;-74
2022/10/07 05:25:12;;;;;;;3.00;1.80;;;;;;;;;;5090726;28;20692;-72
2022/10/07 05:27:39;;;;;;;2.37;1.73;;;;;;;;;;5090891;28;20798;-72
2022/10/07 05:30:07;;;;;;;7.77;1.87;;;;;;;;;;5090775;28;20441;-71
2022/10/07 05:32:34;;;;;;;3.70;1.67;;;;;;;;;;5091006;28;20472;-72
2022/10/07 05:35:02;;;;;;;2.77;1.70;;;;;;;;;;5090698;28;20449;-72
2022/10/07 05:37:29;;;;;;;4.73;1.90;;;;;;;;;;5090942;28;20453;-72
2022/10/07 05:39:58;;;;;;;2.10;1.60;;;;;;;;;;5090961;28;20828;-73
2022/10/07 05:42:25;;;;;;;1.93;1.70;;;;;;;;;;5090405;28;20468;-75
2022/10/07 05:44:52;;;;;;;3.70;1.80;;;;;;;;;;5090232;28;20502;-71
2022/10/07 05:47:19;;;;;;;3.30;1.93;;;;;;;;;;5090240;28;20789;-76
2022/10/07 05:49:46;;;;;;;3.07;1.80;;;;;;;;;;5090798;28;20459;-74
2022/10/07 05:52:14;;;;;;;4.40;2.50;;;;;;;;;;5088526;28;20472;-75
2022/10/07 05:54:41;;;;;;;2.63;1.10;;;;;;;;;;5088419;28;20444;-74
2022/10/07 05:57:09;;;;;;;2.80;1.80;;;;;;;;;;5087665;28;20464;-74
2022/10/07 05:59:36;;;;;;;3.20;1.93;;;;;;;;;;5088487;28;20441;-72
2022/10/07 06:02:03;;;;;;;2.30;1.30;;;;;;;;;;5087152;28;20460;-71
2022/10/07 06:04:31;;;;;;;5.50;2.30;;;;;;;;;;5088918;28;20441;-72
2022/10/07 06:06:58;;;;;;;1.50;1.40;;;;;;;;;;5088603;28;20940;-73
2022/10/07 06:14:52;;;;;;;2.33;1.93;;;;;;;;;;5075858;28;20437;-72
2022/10/07 06:17:19;;;;;;;2.97;2.00;;;;;;;;;;5088560;28;20451;-74
2022/10/07 06:19:46;;;;;;;2.20;1.77;;;;;;;;;;5087912;28;20448;-72
2022/10/07 06:22:13;;;;;;;5.10;2.27;;;;;;;;;;5086845;28;20447;-73
2022/10/07 06:24:41;;;;;;;3.60;2.60;;;;;;;;;;5093427;28;20440;-72
2022/10/07 06:27:08;;;;;;;1.83;1.60;;;;;;;;;;5091956;28;20804;-72
2022/10/07 06:29:36;;;;;;;2.53;1.50;;;;;;;;;;5094428;28;20455;-73
2022/10/07 06:32:04;;;;;;;3.37;1.60;;;;;;;;;;5091957;28;20456;-73
2022/10/07 06:34:32;;;;;;;3.30;1.57;;;;;;;;;;5094439;28;20537;-74
2022/10/07 06:36:59;;;;;;;2.60;1.70;;;;;;;;;;5093283;28;20456;-74
2022/10/07 06:39:26;;;;;;;4.37;1.70;;;;;;;;;;5093241;28;20448;-73
2022/10/07 06:41:55;;;;;;;2.50;1.60;;;;;;;;;;5093451;28;20453;-73
2022/10/07 06:44:22;;;;;;;3.00;2.33;;;;;;;;;;5093390;28;21061;-72
2022/10/07 06:46:51;;;;;;;3.47;1.97;;;;;;;;;;5093560;28;20451;-73
2022/10/07 06:49:18;;;;;;;2.77;2.07;;;;;;;;;;5093516;28;20459;-73
2022/10/07 06:51:46;;;;;;;4.57;2.10;;;;;;;;;;5094310;28;20474;-73
2022/10/07 06:54:13;;;;;;;3.03;1.80;;;;;;;;;;5093316;28;20476;-73
2022/10/07 06:56:40;;;;;;;6.17;2.03;;;;;;;;;;5091615;28;20453;-73
2022/10/07 06:59:07;;;;;;;4.97;2.93;;;;;;;;;;5092609;28;20448;-74
2022/10/07 07:01:34;;;;;;;2.50;1.93;;;;;;;;;;5093715;28;20449;-73
2022/10/07 07:04:03;;;;;;;13.13;2.70;;;;;;;;;;5100054;28;20456;-73
2022/10/07 07:06:30;;;;;;;7.27;2.67;;;;;;;;;;5098246;28;20456;-75
2022/10/07 07:08:59;;;;;;;2.30;2.10;;;;;;;;;;5093480;28;20536;-73
2022/10/07 07:11:36;;;;;;;3.63;2.37;;;;;;;;;;5093512;28;20554;-72
2022/10/07 07:14:03;;;;;;;4.30;2.17;;;;;;;;;;5092431;28;20484;-72
2022/10/07 07:16:31;;;;;;;3.27;1.60;;;;;;;;;;5101959;28;20811;-76
2022/10/07 07:18:58;;;;;;;2.73;2.27;;;;;;;;;;5102298;28;20449;-75
2022/10/07 07:21:27;;;;;;;2.30;2.03;;;;;;;;;;5097324;28;20528;-74
2022/10/07 07:23:55;;;;;;;5.50;2.63;;;;;;;;;;5092796;28;20456;-74
2022/10/07 07:26:22;;;;;;;3.40;2.30;;;;;;;;;;5093941;28;20437;-75
2022/10/07 07:28:51;;;;;;;7.57;2.90;;;;;;;;;;5093712;28;20728;-75
2022/10/07 07:31:19;;;;;;;5.37;2.53;;;;;;;;;;5093155;28;20928;-75
2022/10/07 07:33:51;;;;;;;4.53;2.40;;;;;;;;;;5092572;28;20475;-75
2022/10/07 07:36:19;;;;;;;3.23;2.30;;;;;;;;;;5092311;28;20445;-75
2022/10/07 07:38:51;;;;;;;2.80;2.23;;;;;;;;;;5092683;28;20449;-75
2022/10/07 07:41:19;;;;;;;5.10;2.13;;;;;;;;;;5093477;28;20460;-75
2022/10/07 07:43:49;;;;;;;4.23;2.33;;;;;;;;;;5092544;28;20459;-75
2022/10/07 07:46:16;;;;;;;2.30;2.10;;;;;;;;;;5091843;28;20448;-75
2022/10/07 07:48:43;;;;;;;3.07;2.73;;;;;;;;;;5092783;28;20449;-75
2022/10/07 07:51:10;;;;;;;5.47;2.30;;;;;;;;;;5092656;28;20819;-75
2022/10/07 07:53:38;;;;;;;3.80;2.30;;;;;;;;;;5092079;28;20480;-75
2022/10/07 07:56:06;;;;;;;4.70;2.00;;;;;;;;;;5090396;28;20445;-74
2022/10/07 07:58:34;;;;;;;4.40;2.00;;;;;;;;;;5087402;28;20445;-76
2022/10/07 08:01:02;;;;;;;4.40;2.63;;;;;;;;;;5090294;28;20963;-74
2022/10/07 08:03:29;;;;;;;2.37;1.70;;;;;;;;;;5090651;28;20444;-76
2022/10/07 08:05:56;;;;;;;5.23;2.00;;;;;;;;;;5090362;28;20452;-78
2022/10/07 08:08:23;;;;;;;2.23;2.03;;;;;;;;;;5091491;28;20543;-79
2022/10/07 08:10:50;;;;;;;5.37;2.27;;;;;;;;;;5092077;28;20457;-71
2022/10/07 08:13:19;;;;;;;5.90;2.80;;;;;;;;;;5092239;28;20979;-74
2022/10/07 08:15:46;;;;;;;3.17;2.47;;;;;;;;;;5092360;28;20486;-76
2022/10/07 08:18:13;;;;;;;3.57;2.00;;;;;;;;;;5091600;28;20813;-76
2022/10/07 08:20:40;;;;;;;2.63;2.10;;;;;;;;;;5092109;28;20448;-78
2022/10/07 08:23:07;;;;;;;2.40;1.63;;;;;;;;;;5090071;28;20453;-76
2022/10/07 08:25:35;;;;;;;4.10;2.00;;;;;;;;;;5091223;28;20548;-76
2022/10/07 08:28:02;;;;;;;3.07;1.70;;;;;;;;;;5091949;28;20460;-76
2022/10/07 08:30:33;;;;;;;2.07;1.90;;;;;;;;;;5090745;28;20452;-76
2022/10/07 08:33:00;;;;;;;2.40;1.63;;;;;;;;;;5090635;28;21010;-77
2022/10/07 08:35:27;;;;;;;2.27;2.03;;;;;;;;;;5091238;28;20448;-77
2022/10/07 08:37:54;;;;;;;2.50;1.87;;;;;;;;;;5091388;28;20449;-76
2022/10/07 08:40:21;;;;;;;2.97;2.40;;;;;;;;;;5091867;28;20441;-77
2022/10/07 08:42:48;;;;;;;2.63;2.20;;;;;;;;;;5091831;28;20801;-77
2022/10/07 08:45:21;;;;;;;3.83;2.10;;;;;;;;;;5090697;28;20449;-77
2022/10/07 08:47:51;;;;;;;3.70;1.93;;;;;;;;;;5088211;28;20449;-77
2022/10/07 08:50:20;;;;;;;2.30;1.93;;;;;;;;;;5089983;28;20973;-76
2022/10/07 08:52:50;;;;;;;2.67;1.90;;;;;;;;;;5089079;28;20452;-77
2022/10/07 08:55:19;;;;;;;3.83;2.40;;;;;;;;;;5089471;28;20525;-76
2022/10/07 08:57:50;;;;;;;2.23;1.63;;;;;;;;;;5090301;28;20544;-74
2022/10/07 09:00:19;;;;;;;5.43;2.13;;;;;;;;;;5089460;28;20457;-74
2022/10/07 09:02:55;;;;;;;1.87;1.67;;;;;;;;;;5089439;28;20815;-76
2022/10/07 09:05:24;;;;;;;2.80;2.30;;;;;;;;;;5091507;28;20443;-75
2022/10/07 09:07:54;;;;;;;2.60;2.37;;;;;;;;;;5091014;28;20449;-77
2022/10/07 09:10:28;;;;;;;1.73;1.57;;;;;;;;;;5091470;28;20441;-76
2022/10/07 09:12:58;;;;;;;2.17;1.90;;;;;;;;;;5090023;28;20476;-77
2022/10/07 09:15:31;;;;;;;2.83;2.33;;;;;;;;;;5091327;28;20472;-76
2022/10/07 09:18:00;;;;;;;3.70;2.20;;;;;;;;;;5079018;28;20437;-76
2022/10/07 09:20:31;;;;;;;2.13;1.93;;;;;;;;;;5090717;28;20449;-76
2022/10/07 09:22:59;;;;;;;2.37;1.77;;;;;;;;;;5089863;28;20490;-77
2022/10/07 09:25:27;;;;;;;2.80;1.90;;;;;;;;;;5090983;28;20818;-77
2022/10/07 09:27:54;;;;;;;4.10;2.17;;;;;;;;;;5090397;28;20523;-76
2022/10/07 09:30:22;;;;;;;3.60;2.60;;;;;;;;;;5090389;28;20453;-75
2022/10/07 09:32:50;;;;;;;4.50;2.60;;;;;;;;;;5086514;28;20784;-76
2022/10/07 09:35:21;;;;;;;3.20;2.40;;;;;;;;;;5089242;28;20472;-75
2022/10/07 09:37:59;;;;;;;3.00;2.43;;;;;;;;;;5090640;28;20999;-76
2022/10/07 09:40:34;;;;;;;4.27;2.10;;;;;;;;;;5090140;28;20501;-76
2022/10/07 09:43:01;;;;;;;5.93;2.70;;;;;;;;;;5090363;28;20448;-75
2022/10/07 09:45:31;;;;;;;3.60;2.77;;;;;;;;;;5090039;28;20452;-75
2022/10/07 09:47:59;;;;;;;3.93;2.23;;;;;;;;;;5090301;28;20449;-75
2022/10/07 09:50:36;;;;;;;3.00;2.13;;;;;;;;;;5090333;28;20456;-75
2022/10/07 09:53:04;;;;;;;4.10;2.77;;;;;;;;;;5089861;28;20444;-76
2022/10/07 09:55:36;;;;;;;3.00;2.47;;;;;;;;;;5085211;28;20443;-76
2022/10/07 09:58:05;;;;;;;2.47;2.20;;;;;;;;;;5089747;28;20473;-76
2022/10/07 10:00:32;;;;;;;3.60;2.27;;;;;;;;;;5093744;28;20458;-75
2022/10/07 10:03:03;;;;;;;2.93;2.13;;;;;;;;;;5092107;28;20453;-75
2022/10/07 10:05:31;;;;;;;4.37;3.00;;;;;;;;;;5093502;28;20445;-75
2022/10/07 10:08:01;;;;;;;3.23;2.20;;;;;;;;;;5092458;28;20445;-76
2022/10/07 10:10:29;;;;;;;7.30;2.60;;;;;;;;;;5094095;28;20941;-75
2022/10/07 10:12:57;;;;;;;3.47;2.63;;;;;;;;;;5093767;28;20490;-75
2022/10/07 10:15:26;;;;;;;2.80;2.27;;;;;;;;;;5094010;28;21919;-75
2022/10/07 10:17:55;;;;;;;2.70;2.40;;;;;;;;;;5093641;28;20448;-75
2022/10/07 10:20:31;;;;;;;4.47;3.40;;;;;;;;;;5094834;28;20848;-73
2022/10/07 10:22:58;;;;;;;2.33;2.00;;;;;;;;;;5087365;28;20509;-80
2022/10/07 10:28:20;;;;;;;3.77;2.40;;;;;;;;;;5092161;28;20423;-72
2022/10/07 10:30:51;;;;;;;4.90;2.27;;;;;;;;;;5092924;28;20436;-73
2022/10/07 10:33:23;;;;;;;4.20;2.40;;;;;;;;;;5093943;28;20441;-75
2022/10/07 10:35:54;;;;;;;2.60;2.00;;;;;;;;;;5090386;28;20445;-76
2022/10/07 10:38:28;;;;;;;2.70;2.10;;;;;;;;;;5094014;28;20448;-76
2022/10/07 10:41:02;;;;;;;1.97;1.83;;;;;;;;;;5093380;28;20440;-76
2022/10/07 10:43:34;;;;;;;2.20;2.00;;;;;;;;;;5094609;28;20455;-76
2022/10/07 10:46:16;;;;;;;3.10;2.70;;;;;;;;;;5093308;28;20919;-76
2022/10/07 10:48:45;;;;;;;3.87;2.63;;;;;;;;;;5091771;28;20463;-76
2022/10/07 10:51:20;;;;;;;4.13;3.43;;;;;;;;;;5093193;28;20772;-76
2022/10/07 10:53:51;;;;;;;6.67;2.30;;;;;;;;;;5093620;28;20616;-75
2022/10/07 10:56:26;;;;;;;2.77;2.20;;;;;;;;;;5092691;28;20789;-76
2022/10/07 10:59:02;;;;;;;2.60;2.37;;;;;;;;;;5091377;28;20514;-73
2022/10/07 11:01:33;;;;;;;4.03;2.50;;;;;;;;;;5091742;28;20437;-76
2022/10/07 11:04:21;;;;;;;4.03;2.43;;;;;;;;;;5091502;28;20463;-73
2022/10/07 11:06:51;;;;;;;2.77;2.20;;;;;;;;;;5088720;28;20456;-77
2022/10/07 11:09:23;;;;;;;3.43;2.43;;;;;;;;;;5092276;28;20548;-75
2022/10/07 11:11:51;;;;;;;2.93;2.40;;;;;;;;;;5095574;28;20991;-77
2022/10/07 11:14:21;;;;;;;2.67;2.20;;;;;;;;;;5102006;28;20572;-76
2022/10/07 11:16:51;;;;;;;2.93;2.40;;;;;;;;;;5101519;28;20441;-76
2022/10/07 11:19:21;;;;;;;2.50;2.03;;;;;;;;;;5095945;28;20449;-77
2022/10/07 11:21:49;;;;;;;4.03;2.40;;;;;;;;;;5103155;28;20486;-76
2022/10/07 11:24:18;;;;;;;3.43;3.07;;;;;;;;;;5101816;28;20459;-76
2022/10/07 11:26:50;;;;;;;5.00;3.00;;;;;;;;;;5093621;28;20452;-75
2022/10/07 11:29:23;;;;;;;4.67;2.80;;;;;;;;;;5093457;28;20441;-76
2022/10/07 11:31:53;;;;;;;2.80;2.23;;;;;;;;;;5093750;28;20452;-76
2022/10/07 11:34:23;;;;;;;3.60;2.83;;;;;;;;;;5093232;28;20473;-75
2022/10/07 11:36:57;;;;;;;4.20;2.50;;;;;;;;;;5092810;28;20464;-75
2022/10/07 11:39:24;;;;;;;4.47;2.97;;;;;;;;;;5093093;28;20441;-75
2022/10/07 11:41:55;;;;;;;8.10;3.20;;;;;;;;;;5093578;28;20457;-76
2022/10/07 11:44:27;;;;;;;3.20;2.60;;;;;;;;;;5092688;28;20465;-77
2022/10/07 11:46:54;;;;;;;8.40;3.43;;;;;;;;;;5094365;28;20443;-75
2022/10/07 11:49:23;;;;;;;5.00;3.57;;;;;;;;;;5091543;28;20453;-75
2022/10/07 11:51:54;;;;;;;3.70;3.10;;;;;;;;;;5091184;28;20924;-75
2022/10/07 11:54:22;;;;;;;4.00;2.67;;;;;;;;;;5089693;28;20468;-75
2022/10/07 11:56:51;;;;;;;3.23;2.70;;;;;;;;;;5091295;28;20451;-76
2022/10/07 11:59:42;;;;;;;4.73;3.37;;;;;;;;;;5092671;28;20444;-73
2022/10/07 12:02:28;;;;;;;3.97;2.90;;;;;;;;;;5089399;28;20771;-74
2022/10/07 12:04:56;;;;;;;4.63;3.57;;;;;;;;;;5090080;28;20449;-74
2022/10/07 12:07:51;;;;;;;3.90;2.63;;;;;;;;;;5090720;28;20484;-75
2022/10/07 12:10:36;;;;;;;3.93;3.23;;;;;;;;;;5091200;28;20494;-75
2022/10/07 12:13:37;;;;;;;3.60;2.67;;;;;;;;;;5091548;28;20473;-75
2022/10/07 12:16:19;;;;;;;5.73;3.10;;;;;;;;;;5048511;28;20971;-77
2022/10/07 12:19:09;;;;;;;4.20;2.90;;;;;;;;;;5047455;28;20450;-73
2022/10/07 12:21:51;;;;;;;3.23;2.90;;;;;;;;;;5076388;28;20846;-75
2022/10/07 12:24:18;;;;;;;3.80;2.83;;;;;;;;;;5090296;28;20449;-75
2022/10/07 12:26:46;;;;;;;4.40;2.73;;;;;;;;;;5090932;28;20927;-75
2022/10/07 12:29:21;;;;;;;3.40;2.90;;;;;;;;;;5090329;28;20445;-75
2022/10/07 12:31:48;;;;;;;3.30;2.90;;;;;;;;;;5091957;28;20448;-75
2022/10/07 12:34:27;;;;;;;4.80;3.23;;;;;;;;;;5091132;28;20492;-75
2022/10/07 12:36:54;;;;;;;6.57;3.83;;;;;;;;;;5091099;28;20441;-74
2022/10/07 12:39:34;;;;;;;7.33;4.17;;;;;;;;;;5092118;28;20448;-75
2022/10/07 12:42:02;;;;;;;3.77;2.93;;;;;;;;;;5091483;28;20452;-75
2022/10/07 12:44:32;;;;;;;3.17;2.60;;;;;;;;;;5091334;28;20448;-75
2022/10/07 12:47:00;;;;;;;3.00;2.63;;;;;;;;;;5091182;28;20445;-75
2022/10/07 12:49:31;;;;;;;4.07;2.87;;;;;;;;;;5091249;28;20445;-75
2022/10/07 12:52:00;;;;;;;5.00;2.80;;;;;;;;;;5091430;28;20441;-74
2022/10/07 12:54:30;;;;;;;6.97;3.20;;;;;;;;;;5091386;28;20499;-74
2022/10/07 12:56:58;;;;;;;4.23;3.43;;;;;;;;;;5088910;28;20477;-75
2022/10/07 12:59:46;;;;;;;3.33;3.03;;;;;;;;;;5090128;28;20448;-74
2022/10/07 13:02:31;;;;;;;3.13;2.50;;;;;;;;;;5088949;28;20445;-77
2022/10/07 13:05:07;;;;;;;2.87;2.57;;;;;;;;;;5090485;28;20448;-74
2022/10/07 13:07:46;;;;;;;3.50;2.70;;;;;;;;;;5091147;28;20946;-75
2022/10/07 13:10:26;;;;;;;5.93;3.03;;;;;;;;;;5090964;28;20527;-75
2022/10/07 13:12:54;;;;;;;3.27;2.70;;;;;;;;;;5090143;28;20465;-74
2022/10/07 13:15:31;;;;;;;5.30;2.87;;;;;;;;;;5083134;28;20480;-75
2022/10/07 13:18:03;;;;;;;3.37;3.07;;;;;;;;;;5090088;28;20472;-75
2022/10/07 13:20:42;;;;;;;2.70;2.20;;;;;;;;;;5088462;28;20871;-75
2022/10/07 13:23:13;;;;;;;4.07;3.17;;;;;;;;;;5090080;28;20445;-75
2022/10/07 13:25:44;;;;;;;4.47;3.07;;;;;;;;;;5090765;28;20448;-76
2022/10/07 13:28:15;;;;;;;3.20;2.60;;;;;;;;;;5090365;28;20521;-75
2022/10/07 13:30:43;;;;;;;6.20;3.07;;;;;;;;;;5086954;28;20453;-74
2022/10/07 13:33:16;;;;;;;5.10;3.10;;;;;;;;;;5086933;28;20464;-75
2022/10/07 13:35:44;;;;;;;3.87;3.33;;;;;;;;;;5088502;28;20940;-76
2022/10/07 13:38:21;;;;;;;2.83;2.60;;;;;;;;;;5087092;28;20467;-76
2022/10/07 13:40:53;;;;;;;3.87;3.23;;;;;;;;;;5088554;28;20915;-76
2022/10/07 13:43:22;;;;;;;3.37;3.07;;;;;;;;;;5088326;28;20449;-76
2022/10/07 13:45:49;;;;;;;5.07;3.10;;;;;;;;;;5087300;28;20464;-76
2022/10/07 13:48:17;;;;;;;3.70;2.33;;;;;;;;;;5087323;28;20481;-75
2022/10/07 13:50:48;;;;;;;3.90;2.70;;;;;;;;;;5087990;28;20453;-76
2022/10/07 13:53:20;;;;;;;4.23;2.67;;;;;;;;;;5086265;28;20445;-75
2022/10/07 13:55:47;;;;;;;3.40;2.73;;;;;;;;;;5087300;28;20480;-75
2022/10/07 13:58:15;;;;;;;2.50;2.30;;;;;;;;;;5085787;28;20763;-75
2022/10/07 14:00:45;;;;;;;3.10;2.83;;;;;;;;;;5085735;28;20589;-76
2022/10/07 14:03:15;;;;;;;3.10;2.80;;;;;;;;;;5084369;28;20822;-75
2022/10/07 14:05:50;;;;;;;3.20;2.37;;;;;;;;;;5086059;28;20951;-75
2022/10/07 14:08:20;;;;;;;4.13;2.53;;;;;;;;;;5086223;28;20451;-74
2022/10/07 14:10:52;;;;;;;4.47;3.07;;;;;;;;;;5087988;28;20465;-75
2022/10/07 14:13:19;;;;;;;5.13;3.63;;;;;;;;;;5088235;28;20445;-75
2022/10/07 14:15:49;;;;;;;4.90;2.97;;;;;;;;;;5085414;28;20819;-75
2022/10/07 14:18:17;;;;;;;5.43;2.97;;;;;;;;;;5086976;28;20784;-75
2022/10/07 14:20:50;;;;;;;2.60;2.30;;;;;;;;;;5085730;28;20492;-74
2022/10/07 14:23:25;;;;;;;2.80;2.50;;;;;;;;;;5088220;28;20448;-75
2022/10/07 14:25:54;;;;;;;2.83;2.33;;;;;;;;;;5087401;28;20448;-74
2022/10/07 14:28:28;;;;;;;2.93;2.40;;;;;;;;;;5087072;28;20457;-75
2022/10/07 14:36:57;;;;;;;3.17;2.70;;;;;;;;;;5087460;28;20561;-75
2022/10/07 14:39:32;;;;;;;4.00;2.80;;;;;;;;;;5084947;28;20934;-74
2022/10/07 14:41:59;;;;;;;3.20;2.90;;;;;;;;;;5083443;28;20513;-72
2022/10/07 14:44:26;;;;;;;2.77;2.17;;;;;;;;;;5089005;28;20440;-73
2022/10/07 14:47:02;;;;;;;3.73;3.30;;;;;;;;;;5090446;28;20437;-72
2022/10/07 14:49:30;;;;;;;2.57;2.37;;;;;;;;;;5090530;28;20441;-76
2022/10/07 14:51:57;;;;;;;3.00;2.70;;;;;;;;;;5088267;28;20480;-76
2022/10/07 14:54:26;;;;;;;2.83;2.43;;;;;;;;;;5089344;28;20441;-78
2022/10/07 14:56:53;;;;;;;2.90;2.13;;;;;;;;;;5089834;28;20456;-76
2022/10/07 14:59:21;;;;;;;2.77;2.57;;;;;;;;;;5090553;28;20575;-78
2022/10/07 15:01:48;;;;;;;2.93;2.37;;;;;;;;;;5089030;28;20473;-77
2022/10/07 15:04:15;;;;;;;5.67;3.07;;;;;;;;;;5089111;28;20880;-75
2022/10/07 15:06:42;;;;;;;3.53;2.77;;;20.20;99.90;;;;;;5091145;28;20999;-76
2022/10/07 15:09:10;;;;;;;3.27;2.80;;;;;;;;;;5090796;28;20449;-77
2022/10/07 15:11:40;;;;;;;3.40;2.33;;;;;;;;;;5091747;28;20792;-76
2022/10/07 15:14:09;;;;;;;2.93;2.37;;;;;;;;;;5091092;28;20531;-76